createdAt,value
2022-12-12T00:00:51.864Z,1.01
2022-12-12T00:03:20.109Z,1.07
2022-12-12T00:05:48.176Z,1.07
2022-12-12T00:08:18.614Z,0.98
2022-12-12T00:10:46.577Z,0.97
2022-12-12T00:13:14.440Z,0.74
2022-12-12T00:15:42.381Z,0.81
2022-12-12T00:18:11.569Z,0.81
2022-12-12T00:20:39.722Z,0.80
2022-12-12T00:23:09.834Z,0.90
2022-12-12T00:25:37.768Z,0.89
2022-12-12T00:28:05.809Z,0.70
2022-12-12T00:30:33.722Z,0.84
2022-12-12T00:33:01.587Z,0.96
2022-12-12T00:35:30.743Z,0.94
2022-12-12T00:37:59.653Z,0.75
2022-12-12T00:40:27.435Z,0.61
2022-12-12T00:42:55.229Z,0.80
2022-12-12T00:45:23.201Z,0.87
2022-12-12T00:47:53.395Z,0.81
2022-12-12T00:50:21.460Z,0.75
2022-12-12T00:52:50.771Z,0.77
2022-12-12T00:55:18.600Z,0.81
2022-12-12T00:57:46.487Z,0.89
2022-12-12T01:00:15.407Z,0.88
2022-12-12T01:02:43.465Z,0.75
2022-12-12T01:05:12.061Z,0.83
2022-12-12T01:07:40.827Z,0.91
2022-12-12T01:10:11.345Z,0.93
2022-12-12T01:12:39.246Z,0.85
2022-12-12T01:15:09.580Z,0.87
2022-12-12T01:17:38.645Z,0.92
2022-12-12T01:20:08.235Z,0.81
2022-12-12T01:22:37.196Z,0.81
2022-12-12T01:25:05.899Z,0.80
2022-12-12T01:27:35.193Z,0.68
2022-12-12T01:30:03.235Z,0.61
2022-12-12T01:32:30.993Z,0.68
2022-12-12T01:34:59.047Z,0.76
2022-12-12T01:37:27.209Z,0.78
2022-12-12T01:39:57.140Z,0.80
2022-12-12T01:42:24.936Z,0.82
2022-12-12T01:44:54.452Z,0.80
2022-12-12T01:47:23.817Z,0.79
2022-12-12T01:49:55.686Z,0.79
2022-12-12T01:52:27.980Z,0.84
2022-12-12T01:54:59.795Z,0.73
2022-12-12T01:57:31.325Z,0.79
2022-12-12T02:00:02.223Z,0.82
2022-12-12T02:02:32.829Z,0.77
2022-12-12T02:05:04.219Z,0.72
2022-12-12T02:07:32.790Z,0.50
2022-12-12T02:10:00.614Z,0.26
2022-12-12T02:12:28.586Z,0.36
2022-12-12T02:14:56.499Z,0.31
2022-12-12T02:17:44.071Z,0.15
2022-12-12T02:20:53.088Z,0.07
2022-12-12T02:24:05.448Z,0.01
2022-12-12T02:27:18.912Z,-0.01
2022-12-12T02:30:13.697Z,-0.03
2022-12-12T02:32:59.856Z,-0.10
2022-12-12T02:35:36.525Z,-0.07
2022-12-12T02:38:14.476Z,-0.09
2022-12-12T02:40:47.720Z,-0.20
2022-12-12T02:43:26.927Z,-0.34
2022-12-12T02:45:59.251Z,-0.28
2022-12-12T02:48:36.155Z,-0.46
2022-12-12T02:51:07.075Z,-0.55
2022-12-12T02:53:35.034Z,-0.67
2022-12-12T02:56:08.233Z,-0.92
2022-12-12T02:58:39.007Z,-0.92
2022-12-12T03:01:21.023Z,-0.79
2022-12-12T03:04:14.846Z,-0.70
2022-12-12T03:07:13.112Z,-0.86
2022-12-12T03:09:51.453Z,-0.92
2022-12-12T03:12:28.878Z,-0.84
2022-12-12T03:15:11.004Z,-0.74
2022-12-12T03:17:43.798Z,-0.74
2022-12-12T03:20:18.940Z,-0.97
2022-12-12T03:22:54.173Z,-1.17
2022-12-12T03:25:27.485Z,-0.98
2022-12-12T03:28:02.469Z,-0.92
2022-12-12T03:30:39.736Z,-0.91
2022-12-12T03:33:15.816Z,-0.95
2022-12-12T03:35:48.917Z,-0.99
2022-12-12T03:38:24.109Z,-1.02
2022-12-12T03:40:55.454Z,-1.24
2022-12-12T03:43:26.753Z,-1.32
2022-12-12T03:46:00.311Z,-1.14
2022-12-12T03:48:30.648Z,-1.05
2022-12-12T03:51:05.618Z,-1.29
2022-12-12T03:53:38.318Z,-1.31
2022-12-12T03:56:13.461Z,-1.21
2022-12-12T03:58:49.019Z,-1.18
2022-12-12T04:01:22.259Z,-1.12
2022-12-12T04:03:57.523Z,-1.22
2022-12-12T04:06:34.503Z,-1.19
2022-12-12T04:09:23.057Z,-1.28
2022-12-12T04:12:18.851Z,-1.26
2022-12-12T04:15:00.849Z,-1.27
2022-12-12T04:17:35.018Z,-1.20
2022-12-12T04:20:28.266Z,-1.33
2022-12-12T04:23:18.753Z,-1.35
2022-12-12T04:26:16.912Z,-1.34
2022-12-12T04:28:51.679Z,-1.12
2022-12-12T04:31:26.384Z,-0.99
2022-12-12T04:33:59.296Z,-0.99
2022-12-12T04:36:27.972Z,-1.04
2022-12-12T04:38:58.481Z,-0.97
2022-12-12T04:41:28.343Z,-1.18
2022-12-12T04:43:58.165Z,-1.10
2022-12-12T04:46:29.640Z,-1.27
2022-12-12T04:49:01.720Z,-1.30
2022-12-12T04:51:33.196Z,-1.39
2022-12-12T04:54:09.955Z,-1.22
2022-12-12T04:56:40.662Z,-1.15
2022-12-12T04:59:09.550Z,-0.99
2022-12-12T05:01:52.620Z,-1.06
2022-12-12T05:04:27.812Z,-1.17
2022-12-12T05:07:00.234Z,-1.17
2022-12-12T05:09:31.768Z,-0.98
2022-12-12T05:11:59.763Z,-1.25
2022-12-12T05:14:27.565Z,-1.19
2022-12-12T05:17:02.198Z,-1.29
2022-12-12T05:19:30.165Z,-1.11
2022-12-12T05:21:57.979Z,-1.04
2022-12-12T05:24:31.284Z,-0.97
2022-12-12T05:27:02.521Z,-0.92
2022-12-12T05:29:32.012Z,-0.74
2022-12-12T05:31:59.884Z,-0.65
2022-12-12T05:34:27.725Z,-0.63
2022-12-12T05:36:55.675Z,-0.92
2022-12-12T05:39:23.772Z,-0.93
2022-12-12T05:41:52.727Z,-0.85
2022-12-12T05:44:21.866Z,-0.79
2022-12-12T05:46:49.639Z,-0.72
2022-12-12T05:49:19.515Z,-0.63
2022-12-12T05:51:47.436Z,-0.76
2022-12-12T05:54:15.224Z,-0.86
2022-12-12T05:56:43.112Z,-0.69
2022-12-12T05:59:13.185Z,-0.68
2022-12-12T06:01:44.720Z,-0.72
2022-12-12T06:04:12.810Z,-0.69
2022-12-12T06:06:40.848Z,-0.68
2022-12-12T06:09:08.882Z,-0.65
2022-12-12T06:11:36.742Z,-0.62
2022-12-12T06:14:04.577Z,-0.57
2022-12-12T06:16:32.417Z,-0.49
2022-12-12T06:19:01.787Z,-0.41
2022-12-12T06:21:29.608Z,-0.36
2022-12-12T06:23:59.846Z,-0.43
2022-12-12T06:26:27.754Z,-0.47
2022-12-12T06:28:57.588Z,-0.42
2022-12-12T06:31:25.911Z,-0.37
2022-12-12T06:33:53.916Z,-0.48
2022-12-12T06:36:24.928Z,-0.47
2022-12-12T06:38:53.536Z,-0.37
2022-12-12T06:41:21.638Z,-0.29
2022-12-12T06:43:49.559Z,-0.30
2022-12-12T06:46:20.202Z,-0.31
2022-12-12T06:48:48.565Z,-0.32
2022-12-12T06:51:18.347Z,-0.24
2022-12-12T06:53:48.184Z,-0.36
2022-12-12T06:56:17.567Z,-0.57
2022-12-12T06:58:46.111Z,-0.48
2022-12-12T07:01:15.489Z,-0.46
2022-12-12T07:03:43.525Z,-0.52
2022-12-12T07:06:11.668Z,-0.60
2022-12-12T07:08:39.980Z,-0.62
2022-12-12T07:11:11.974Z,-0.48
2022-12-12T07:13:42.637Z,-0.46
2022-12-12T07:16:10.976Z,-0.49
2022-12-12T07:18:39.523Z,-0.59
2022-12-12T07:21:08.740Z,-0.64
2022-12-12T07:23:37.444Z,-0.62
2022-12-12T07:26:06.772Z,-0.51
2022-12-12T07:28:38.165Z,-0.52
2022-12-12T07:31:07.927Z,-0.64
2022-12-12T07:33:43.778Z,-0.55
2022-12-12T07:36:12.656Z,-0.75
2022-12-12T07:38:40.751Z,-0.55
2022-12-12T07:41:10.697Z,-0.37
2022-12-12T07:43:43.719Z,-0.42
2022-12-12T07:46:14.495Z,-0.43
2022-12-12T07:48:43.072Z,-0.40
2022-12-12T07:51:11.156Z,-0.44
2022-12-12T07:53:39.149Z,-0.43
2022-12-12T07:56:07.611Z,-0.39
2022-12-12T07:58:35.573Z,-0.57
2022-12-12T08:01:14.419Z,-0.50
2022-12-12T08:03:43.768Z,-0.59
2022-12-12T08:06:12.082Z,-0.59
2022-12-12T08:08:40.431Z,-0.50
2022-12-12T08:11:10.818Z,-0.27
2022-12-12T08:13:40.113Z,-0.10
2022-12-12T08:16:15.069Z,-0.06
2022-12-12T08:18:43.601Z,-0.02
2022-12-12T08:21:12.667Z,-0.01
2022-12-12T08:23:41.788Z,-0.03
2022-12-12T08:26:11.710Z,-0.06
2022-12-12T08:28:41.405Z,0.17
2022-12-12T08:31:10.888Z,0.26
2022-12-12T08:33:38.984Z,0.28
2022-12-12T08:36:15.864Z,0.44
2022-12-12T08:38:44.312Z,0.43
2022-12-12T08:41:13.049Z,0.46
2022-12-12T08:43:42.588Z,0.70
2022-12-12T08:46:17.341Z,0.46
2022-12-12T08:48:46.263Z,0.70
2022-12-12T08:51:14.230Z,0.84
2022-12-12T08:53:44.792Z,0.70
2022-12-12T08:56:12.751Z,0.63
2022-12-12T08:58:40.933Z,0.37
2022-12-12T09:01:12.901Z,0.14
2022-12-12T09:03:43.986Z,-0.02
2022-12-12T09:06:12.660Z,0.49
2022-12-12T09:08:40.986Z,0.73
2022-12-12T09:11:09.119Z,0.84
2022-12-12T09:13:37.731Z,0.88
2022-12-12T09:16:07.565Z,0.90
2022-12-12T09:18:40.812Z,0.65
2022-12-12T09:21:12.797Z,0.92
2022-12-12T09:23:58.623Z,1.08
2022-12-12T09:26:32.153Z,0.95
2022-12-12T09:29:00.057Z,1.19
2022-12-12T09:31:28.068Z,1.16
2022-12-12T09:33:57.462Z,0.82
2022-12-12T09:36:25.432Z,0.93
2022-12-12T09:38:53.377Z,1.04
2022-12-12T09:41:24.505Z,0.99
2022-12-12T09:43:58.762Z,1.36
2022-12-12T09:46:33.182Z,1.27
2022-12-12T09:49:13.849Z,1.40
2022-12-12T09:51:43.802Z,1.39
2022-12-12T09:54:15.392Z,1.34
2022-12-12T09:56:51.710Z,1.49
2022-12-12T09:59:30.065Z,1.53
2022-12-12T10:02:05.582Z,1.37
2022-12-12T10:04:40.587Z,1.30
2022-12-12T10:07:16.060Z,1.57
2022-12-12T10:09:59.804Z,1.63
2022-12-12T10:12:30.900Z,1.60
2022-12-12T10:15:02.946Z,1.59
2022-12-12T10:17:34.164Z,1.71
2022-12-12T10:20:07.368Z,1.81
2022-12-12T10:22:43.198Z,1.63
2022-12-12T10:25:21.621Z,1.11
2022-12-12T10:27:53.027Z,0.57
2022-12-12T10:30:31.405Z,0.77
2022-12-12T10:33:17.247Z,1.35
2022-12-12T10:35:54.196Z,1.74
2022-12-12T10:38:38.559Z,2.04
2022-12-12T10:41:14.243Z,2.25
2022-12-12T10:43:49.744Z,1.75
2022-12-12T10:46:25.814Z,2.20
2022-12-12T10:48:54.693Z,2.21
2022-12-12T10:51:27.555Z,2.76
2022-12-12T10:53:55.810Z,2.89
2022-12-12T10:56:26.611Z,3.11
2022-12-12T10:58:56.238Z,3.29
2022-12-12T11:02:00.573Z,3.25
2022-12-12T11:04:17.433Z,3.05
2022-12-12T11:06:51.728Z,3.20
2022-12-12T11:09:22.701Z,3.63
2022-12-12T11:12:01.985Z,3.81
2022-12-12T11:14:34.865Z,3.82
2022-12-12T11:17:03.305Z,3.27
2022-12-12T11:19:39.284Z,4.07
2022-12-12T11:22:08.608Z,4.28
2022-12-12T11:24:40.932Z,4.12
2022-12-12T11:27:09.111Z,4.31
2022-12-12T11:29:44.508Z,4.63
2022-12-12T11:32:15.685Z,4.24
2022-12-12T11:34:48.207Z,4.75
2022-12-12T11:37:19.474Z,4.66
2022-12-12T11:39:51.312Z,3.09
2022-12-12T11:42:30.583Z,4.51
2022-12-12T11:45:01.820Z,5.18
2022-12-12T11:47:35.830Z,5.46
2022-12-12T11:50:18.435Z,4.22
2022-12-12T11:52:49.808Z,3.24
2022-12-12T11:55:23.959Z,3.78
2022-12-12T11:58:09.112Z,3.33
2022-12-12T12:00:45.197Z,2.31
2022-12-12T12:03:25.447Z,2.20
2022-12-12T12:06:07.016Z,2.25
2022-12-12T12:08:48.449Z,2.29
2022-12-12T12:11:26.911Z,2.01
2022-12-12T12:14:19.697Z,1.33
2022-12-12T12:16:57.838Z,1.66
2022-12-12T12:19:34.575Z,1.54
2022-12-12T12:22:15.903Z,1.36
2022-12-12T12:25:07.984Z,1.20
2022-12-12T12:27:43.595Z,0.93
2022-12-12T12:30:21.837Z,1.00
2022-12-12T12:33:17.723Z,1.02
2022-12-12T12:35:57.416Z,0.65
2022-12-12T12:38:38.553Z,1.10
2022-12-12T12:41:27.417Z,1.58
2022-12-12T12:44:09.793Z,1.14
2022-12-12T12:46:44.873Z,1.54
2022-12-12T12:49:19.418Z,1.35
2022-12-12T12:51:53.609Z,2.15
2022-12-12T12:54:25.163Z,2.36
2022-12-12T12:56:59.503Z,1.61
2022-12-12T12:59:33.603Z,1.34
2022-12-12T13:02:05.523Z,1.48
2022-12-12T13:04:42.193Z,1.01
2022-12-12T13:07:19.617Z,1.35
2022-12-12T13:09:54.593Z,1.85
2022-12-12T13:12:30.492Z,1.42
2022-12-12T13:15:03.345Z,1.27
2022-12-12T13:17:45.431Z,1.00
2022-12-12T13:20:17.189Z,0.98
2022-12-12T13:22:54.747Z,1.26
2022-12-12T13:25:33.672Z,1.23
2022-12-12T13:28:08.097Z,1.28
2022-12-12T13:30:48.691Z,1.85
2022-12-12T13:33:36.563Z,2.34
2022-12-12T13:36:11.254Z,1.73
2022-12-12T13:38:40.548Z,1.14
2022-12-12T13:41:10.930Z,1.58
2022-12-12T13:43:47.217Z,1.30
2022-12-12T13:46:35.288Z,1.16
2022-12-12T13:49:26.580Z,1.06
2022-12-12T13:52:24.795Z,1.17
2022-12-12T13:55:19.045Z,1.25
2022-12-12T13:58:21.955Z,0.92
2022-12-12T14:01:40.494Z,0.87
2022-12-12T14:04:26.685Z,0.74
2022-12-12T14:07:01.672Z,1.02
2022-12-12T14:09:46.603Z,0.97
2022-12-12T14:12:21.986Z,0.76
2022-12-12T14:14:57.075Z,1.03
2022-12-12T14:17:29.349Z,0.93
2022-12-12T14:19:59.746Z,1.28
2022-12-12T14:22:28.193Z,0.75
2022-12-12T14:25:05.030Z,0.76
2022-12-12T14:28:14.767Z,0.61
2022-12-12T14:30:48.221Z,0.49
2022-12-12T14:33:51.951Z,0.51
2022-12-12T14:36:53.908Z,0.33
2022-12-12T14:39:37.983Z,0.28
2022-12-12T14:42:08.422Z,0.35
2022-12-12T14:44:50.547Z,0.54
2022-12-12T14:47:18.989Z,0.55
2022-12-12T14:49:48.459Z,0.40
2022-12-12T14:52:20.210Z,0.34
2022-12-12T14:54:49.563Z,0.16
2022-12-12T14:57:23.179Z,0.20
2022-12-12T14:59:51.992Z,0.22
2022-12-12T15:02:24.533Z,0.17
2022-12-12T15:05:04.481Z,0.04
2022-12-12T15:07:34.657Z,-0.21
2022-12-12T15:10:02.835Z,-0.29
2022-12-12T15:12:34.902Z,-0.22
2022-12-12T15:15:05.189Z,-0.12
2022-12-12T15:17:36.881Z,-0.21
2022-12-12T15:20:10.080Z,0.02
2022-12-12T15:22:40.163Z,0.16
2022-12-12T15:25:17.278Z,0.37
2022-12-12T15:27:53.862Z,0.40
2022-12-12T15:30:32.620Z,0.37
2022-12-12T15:33:01.736Z,0.19
2022-12-12T15:35:34.324Z,0.18
2022-12-12T15:38:05.593Z,0.14
2022-12-12T15:40:37.456Z,0.38
2022-12-12T15:43:08.378Z,0.65
2022-12-12T15:45:39.962Z,0.80
2022-12-12T15:48:15.572Z,0.80
2022-12-12T15:50:57.053Z,0.66
2022-12-12T15:53:27.557Z,0.56
2022-12-12T15:56:00.543Z,0.47
2022-12-12T15:58:30.138Z,0.43
2022-12-12T16:01:07.816Z,0.47
2022-12-12T16:03:56.119Z,0.42
2022-12-12T16:06:27.572Z,0.39
2022-12-12T16:09:02.233Z,0.16
2022-12-12T16:11:42.218Z,0.10
2022-12-12T16:14:39.089Z,0.01
2022-12-12T16:17:12.628Z,0.17
2022-12-12T16:19:43.852Z,0.19
2022-12-12T16:22:23.630Z,0.03
2022-12-12T16:24:55.318Z,-0.21
2022-12-12T16:27:23.215Z,-0.38
2022-12-12T16:29:51.454Z,-0.83
2022-12-12T16:32:21.233Z,-1.01
2022-12-12T16:34:49.443Z,-1.21
2022-12-12T16:37:19.580Z,-1.02
2022-12-12T16:39:49.715Z,-1.01
2022-12-12T16:42:20.740Z,-0.91
2022-12-12T16:44:49.576Z,-0.54
2022-12-12T16:47:21.851Z,-0.50
2022-12-12T16:49:50.146Z,-0.73
2022-12-12T16:52:21.458Z,-0.90
2022-12-12T16:54:53.594Z,-0.80
2022-12-12T16:57:21.990Z,-0.65
2022-12-12T16:59:50.055Z,-0.50
2022-12-12T17:02:23.603Z,-0.39
2022-12-12T17:04:51.997Z,-0.77
2022-12-12T17:07:21.313Z,-0.68
2022-12-12T17:09:49.280Z,-0.77
2022-12-12T17:12:18.678Z,-1.04
2022-12-12T17:14:46.645Z,-1.09
2022-12-12T17:17:14.822Z,-1.42
2022-12-12T17:19:42.762Z,-1.75
2022-12-12T17:22:10.662Z,-1.85
2022-12-12T17:24:41.957Z,-1.96
2022-12-12T17:27:09.881Z,-2.05
2022-12-12T17:29:40.312Z,-2.07
2022-12-12T17:32:08.506Z,-2.19
2022-12-12T17:34:36.475Z,-2.32
2022-12-12T17:37:04.404Z,-2.06
2022-12-12T17:39:35.354Z,-2.00
2022-12-12T17:42:04.925Z,-1.87
2022-12-12T17:44:32.971Z,-1.76
2022-12-12T17:47:00.907Z,-1.73
2022-12-12T17:49:29.100Z,-1.51
2022-12-12T17:51:57.047Z,-1.35
2022-12-12T17:54:25.144Z,-1.42
2022-12-12T17:56:53.066Z,-1.26
2022-12-12T17:59:22.766Z,-1.52
2022-12-12T18:01:53.881Z,-1.30
2022-12-12T18:04:27.734Z,-1.12
2022-12-12T18:06:56.300Z,-1.03
2022-12-12T18:09:24.320Z,-0.97
2022-12-12T18:11:52.316Z,-0.93
2022-12-12T18:14:20.319Z,-1.47
2022-12-12T18:16:51.340Z,-1.99
2022-12-12T18:19:19.722Z,-2.14
2022-12-12T18:22:03.820Z,-2.22
2022-12-12T18:24:33.003Z,-2.15
2022-12-12T18:27:03.476Z,-1.78
2022-12-12T18:29:32.226Z,-1.82
2022-12-12T18:32:01.949Z,-1.97
2022-12-12T18:34:29.831Z,-2.08
2022-12-12T18:36:57.839Z,-1.76
2022-12-12T18:39:26.340Z,-1.51
2022-12-12T18:41:54.285Z,-1.43
2022-12-12T18:44:22.214Z,-1.53
2022-12-12T18:46:52.648Z,-1.73
2022-12-12T18:49:24.636Z,-2.13
2022-12-12T18:51:53.599Z,-2.14
2022-12-12T18:54:21.568Z,-2.20
2022-12-12T18:56:49.952Z,-2.34
2022-12-12T18:59:18.125Z,-2.44
2022-12-12T19:01:46.132Z,-2.33
2022-12-12T19:04:22.716Z,-2.52
2022-12-12T19:06:55.706Z,-2.63
2022-12-12T19:09:23.646Z,-2.47
2022-12-12T19:11:56.887Z,-2.31
2022-12-12T19:14:45.983Z,-2.12
2022-12-12T19:17:23.557Z,-2.34
2022-12-12T19:19:53.919Z,-2.56
2022-12-12T19:25:11.448Z,-2.73
2022-12-12T19:27:39.348Z,-2.66
2022-12-12T19:30:08.551Z,-2.79
2022-12-12T19:32:36.462Z,-2.72
2022-12-12T19:35:05.317Z,-2.53
2022-12-12T19:37:37.196Z,-2.66
2022-12-12T19:40:05.886Z,-2.36
2022-12-12T19:42:36.871Z,-2.38
2022-12-12T19:45:06.044Z,-2.30
2022-12-12T19:47:35.050Z,-2.62
2022-12-12T19:50:03.270Z,-2.77
2022-12-12T19:52:35.555Z,-2.87
2022-12-12T19:55:03.455Z,-2.97
2022-12-12T19:57:34.303Z,-2.71
2022-12-12T20:00:02.312Z,-2.22
2022-12-12T20:02:37.738Z,-2.27
2022-12-12T20:05:06.307Z,-2.19
2022-12-12T20:07:35.589Z,-2.05
2022-12-12T20:10:03.458Z,-2.11
2022-12-12T20:12:31.504Z,-2.58
2022-12-12T20:14:59.398Z,-2.98
2022-12-12T20:17:27.348Z,-3.00
2022-12-12T20:19:55.178Z,-2.63
2022-12-12T20:22:23.603Z,-2.45
2022-12-12T20:24:52.868Z,-2.43
2022-12-12T20:27:20.890Z,-2.78
2022-12-12T20:29:48.823Z,-2.83
2022-12-12T20:32:19.108Z,-3.13
2022-12-12T20:34:47.266Z,-3.14
2022-12-12T20:37:19.931Z,-2.84
2022-12-12T20:39:48.468Z,-2.52
2022-12-12T20:42:17.802Z,-2.38
2022-12-12T20:44:45.720Z,-2.40
2022-12-12T20:47:17.106Z,-3.16
2022-12-12T20:49:45.020Z,-3.64
2022-12-12T20:52:13.027Z,-3.74
2022-12-12T20:54:41.392Z,-3.79
2022-12-12T20:57:09.279Z,-3.80
2022-12-12T20:59:39.155Z,-3.69
2022-12-12T21:02:07.303Z,-3.46
2022-12-12T21:04:35.354Z,-2.96
2022-12-12T21:07:03.253Z,-2.96
2022-12-12T21:09:33.416Z,-3.24
2022-12-12T21:12:01.422Z,-3.31
2022-12-12T21:14:30.861Z,-3.21
2022-12-12T21:17:02.563Z,-3.26
2022-12-12T21:19:30.546Z,-3.31
2022-12-12T21:21:58.599Z,-3.32
2022-12-12T21:24:26.930Z,-3.39
2022-12-12T21:26:54.852Z,-3.29
2022-12-12T21:29:25.706Z,-3.07
2022-12-12T21:31:53.716Z,-3.06
2022-12-12T21:34:25.550Z,-3.56
2022-12-12T21:36:54.272Z,-3.17
2022-12-12T21:39:23.596Z,-3.17
2022-12-12T21:41:51.755Z,-2.90
2022-12-12T21:44:20.471Z,-3.32
2022-12-12T21:46:48.504Z,-3.90
2022-12-12T21:49:30.607Z,-3.99
2022-12-12T21:52:01.934Z,-4.23
2022-12-12T21:54:30.921Z,-4.16
2022-12-12T21:56:59.876Z,-4.23
2022-12-12T21:59:28.792Z,-4.30
2022-12-12T22:01:57.675Z,-4.22
2022-12-12T22:04:26.618Z,-4.12
2022-12-12T22:06:54.690Z,-4.04
2022-12-12T22:09:24.355Z,-4.05
2022-12-12T22:12:03.006Z,-4.03
2022-12-12T22:14:32.044Z,-3.66
2022-12-12T22:17:00.047Z,-3.36
2022-12-12T22:19:28.142Z,-3.22
2022-12-12T22:21:56.082Z,-3.15
2022-12-12T22:24:28.416Z,-3.42
2022-12-12T22:26:56.489Z,-3.18
2022-12-12T22:29:24.374Z,-3.63
2022-12-12T22:31:52.653Z,-3.99
2022-12-12T22:34:23.354Z,-4.06
2022-12-12T22:36:54.195Z,-4.21
2022-12-12T22:39:24.328Z,-3.79
2022-12-12T22:41:56.923Z,-3.43
2022-12-12T22:44:26.563Z,-3.51
2022-12-12T22:46:55.717Z,-3.52
2022-12-12T22:49:26.523Z,-3.88
2022-12-12T22:51:56.529Z,-3.71
2022-12-12T22:54:24.799Z,-3.45
2022-12-12T22:56:52.778Z,-3.43
2022-12-12T22:59:22.122Z,-3.50
2022-12-12T23:01:50.163Z,-4.04
2022-12-12T23:04:18.217Z,-4.48
2022-12-12T23:06:46.133Z,-4.41
2022-12-12T23:09:16.411Z,-3.89
2022-12-12T23:11:45.801Z,-3.66
2022-12-12T23:14:17.194Z,-4.03
2022-12-12T23:16:49.646Z,-4.47
2022-12-12T23:19:20.475Z,-4.62
2022-12-12T23:21:48.572Z,-4.11
2022-12-12T23:24:16.796Z,-3.90
2022-12-12T23:26:45.427Z,-3.72
2022-12-12T23:29:16.908Z,-3.64
2022-12-12T23:31:45.744Z,-3.57
2022-12-12T23:34:20.476Z,-3.55
2022-12-12T23:36:48.554Z,-4.34
2022-12-12T23:39:17.109Z,-4.39
2022-12-12T23:41:45.451Z,-3.98
2022-12-12T23:44:15.021Z,-3.86
2022-12-12T23:46:43.663Z,-4.17
2022-12-12T23:49:17.985Z,-4.21
2022-12-12T23:51:47.534Z,-4.87
2022-12-12T23:54:17.240Z,-4.81
2022-12-12T23:56:49.527Z,-4.85
2022-12-12T23:59:21.522Z,-5.28
